Time;durP1;ratioP1;P1;durP2;ratioP2;P2;SDS_P1;SDS_P2;PMS_P1;PMS_P2;Temp;Humidity;BMP_temperature;BMP_pressure;BME280_temperature;BME280_humidity;BME280_pressure;Samples;Min_cycle;Max_cycle;Signal;HPM_P1;HPM_P2
2022/01/14 00:01:09;;;;;;;15.25;7.43;;;;;;;-4.98;74.25;95958.09;4992327;28;20210;-75
2022/01/14 00:03:36;;;;;;;11.00;5.75;;;;;;;-4.98;73.63;95958.09;4992109;28;20202;-74
2022/01/14 00:06:03;;;;;;;11.57;5.20;;;;;;;-4.96;73.93;95950.78;4980716;28;20198;-74
2022/01/14 00:08:31;;;;;;;16.13;6.30;;;;;;;-5.01;73.70;95949.53;4990838;28;20234;-73
2022/01/14 00:10:59;;;;;;;18.00;6.10;;;;;;;-5.05;74.32;95948.31;4992054;28;20657;-75
2022/01/14 00:13:51;;;;;;;15.77;7.22;;;;;;;-5.02;74.28;95947.91;4985774;28;20293;-76
2022/01/14 00:16:19;;;;;;;10.80;5.07;;;;;;;-4.96;74.12;95961.34;4985141;28;20231;-76
2022/01/14 00:18:46;;;;;;;12.88;4.38;;;;;;;-4.92;73.96;95962.59;4972934;28;20234;-75
2022/01/14 00:21:13;;;;;;;18.95;6.13;;;;;;;-4.98;73.50;95966.03;4988455;28;20221;-75
2022/01/14 00:23:42;;;;;;;17.92;6.80;;;;;;;-5.02;73.69;95958.47;4991825;28;20510;-75
2022/01/14 00:31:49;;;;;;;15.68;6.63;;;;;;;-4.68;72.43;95975.28;4991820;28;20228;-75
2022/01/14 00:34:17;;;;;;;14.43;6.85;;;;;;;-4.68;72.82;95975.28;4978957;28;20190;-74
2022/01/14 00:36:45;;;;;;;13.13;5.30;;;;;;;-4.69;72.80;95974.44;4980492;28;20233;-75
2022/01/14 00:39:15;;;;;;;8.00;3.10;;;;;;;-4.67;72.32;95977.72;4985728;28;20234;-75
2022/01/14 00:41:43;;;;;;;7.85;4.10;;;;;;;-4.69;72.55;95992.13;4984444;28;20189;-75
2022/01/14 00:44:13;;;;;;;9.02;3.45;;;;;;;-4.76;72.92;95984.16;4978399;28;20202;-75
2022/01/14 00:46:41;;;;;;;13.63;5.93;;;;;;;-4.72;73.52;95972.19;4978577;28;20221;-75
2022/01/14 00:49:08;;;;;;;5.88;3.70;;;;;;;-4.63;72.57;95972.81;4978823;28;20331;-75
2022/01/14 00:51:35;;;;;;;14.65;5.20;;;;;;;-4.69;72.55;95971.81;4978613;28;20206;-75
2022/01/14 00:54:02;;;;;;;10.82;4.40;;;;;;;-4.67;72.22;95977.72;4984932;28;20206;-74
2022/01/14 00:56:34;;;;;;;15.52;4.95;;;;;;;-4.70;72.47;95985.22;4985470;28;20206;-76
2022/01/14 00:59:15;;;;;;;4.90;2.92;;;;;;;-4.79;72.60;95989.06;4980160;28;20329;-75
2022/01/14 01:01:44;;;;;;;9.75;4.28;;;;;;;-4.77;72.43;95981.72;4991305;28;20222;-76
2022/01/14 01:04:11;;;;;;;13.32;6.30;;;;;;;-4.71;72.53;95978.31;4981177;28;20206;-75
2022/01/14 01:06:39;;;;;;;18.83;6.15;;;;;;;-4.76;72.53;95983.34;4986842;28;20226;-74
2022/01/14 01:09:10;;;;;;;25.67;7.45;;;;;;;-4.77;72.76;95982.53;4987038;28;20225;-77
2022/01/14 01:11:43;;;;;;;12.13;5.30;;;;;;;-4.74;72.92;95955.72;4982465;28;20241;-77
2022/01/14 01:14:13;;;;;;;7.80;3.92;;;;;;;-4.63;72.26;95956.97;4983060;28;20278;-76
2022/01/14 01:16:40;;;;;;;15.20;4.55;;;;;;;-4.48;70.73;95949.66;4981922;28;20236;-75
2022/01/14 01:19:07;;;;;;;12.13;6.18;;;;;;;-4.39;69.99;95951.13;4981741;28;20237;-75
2022/01/14 01:21:35;;;;;;;12.27;5.13;;;;;;;-4.32;70.42;95948.47;4995092;28;20213;-75
2022/01/14 01:24:02;;;;;;;10.27;5.32;;;;;;;-4.16;69.07;95936.69;4981251;28;20628;-76
2022/01/14 01:26:32;;;;;;;7.40;4.38;;;;;;;-4.28;69.58;95927.72;4994515;28;20208;-74
2022/01/14 01:29:09;;;;;;;12.75;6.00;;;;;;;-4.23;69.80;95933.22;4993581;28;20198;-74
2022/01/14 01:31:37;;;;;;;15.25;6.43;;;;;;;-4.14;69.14;95924.06;4983896;28;20308;-75
2022/01/14 01:34:06;;;;;;;10.10;5.50;;;;;;;-4.19;68.47;95922.03;4981763;28;20209;-74
2022/01/14 01:36:33;;;;;;;17.75;6.63;;;;;;;-4.25;69.36;95936.09;4984887;28;20211;-75
2022/01/14 01:39:00;;;;;;;8.65;4.43;;;;;;;-4.26;69.03;95931.00;4978652;28;20361;-74
2022/01/14 01:41:30;;;;;;;15.50;5.65;;;;;;;-4.26;69.08;95925.69;4984309;28;20206;-75
2022/01/14 01:43:59;;;;;;;9.35;5.10;;;;;;;-4.41;70.06;95924.06;4979392;28;20227;-75
2022/01/14 01:46:28;;;;;;;19.30;6.78;;;;;;;-4.40;70.28;95920.41;4982996;28;20588;-75
2022/01/14 01:48:55;;;;;;;6.15;3.53;;;;;;;-4.32;69.31;95916.75;4992876;28;20643;-75
2022/01/14 01:51:22;;;;;;;18.10;6.70;;;;;;;-4.34;69.43;95919.56;4983136;28;20581;-74
2022/01/14 01:53:49;;;;;;;14.57;4.57;;;;;;;-4.39;69.53;95921.22;4992984;28;20202;-74
2022/01/14 01:56:17;;;;;;;13.85;5.07;;;;;;;-4.50;70.63;95917.31;4982530;28;20298;-74
2022/01/14 01:58:45;;;;;;;5.00;3.10;;;;;;;-4.58;70.49;95914.88;4987679;28;20218;-74
2022/01/14 02:01:11;;;;;;;9.70;5.10;;;;;;;-4.65;70.76;95911.44;4974799;28;20213;-74
2022/01/14 02:03:42;;;;;;;11.77;4.93;;;;;;;-4.66;71.02;95904.53;4987985;28;20577;-75
2022/01/14 02:06:09;;;;;;;17.05;6.55;;;;;;;-4.69;71.55;95904.91;4987544;28;20668;-75
2022/01/14 02:08:36;;;;;;;8.57;4.55;;;;;;;-4.74;71.62;95887.00;4980916;28;20238;-74
2022/01/14 02:11:03;;;;;;;13.75;6.32;;;;;;;-4.70;70.79;95887.44;4994265;28;20212;-74
2022/01/14 02:13:31;;;;;;;12.57;5.35;;;;;;;-4.73;71.31;95887.81;4982216;28;20202;-75
2022/01/14 02:16:20;;;;;;;12.10;4.55;;;;;;;-4.75;71.33;95868.72;4993824;28;20225;-75
2022/01/14 02:19:11;;;;;;;6.78;3.28;;;;;;;-4.68;70.58;95865.06;4993991;28;20226;-74
2022/01/14 02:24:35;;;;;;;6.43;3.88;;;;;;;-4.68;70.60;95856.34;4990989;28;20272;-74
2022/01/14 02:27:02;;;;;;;11.25;3.80;;;;;;;-4.59;70.47;95857.75;4985959;28;20194;-73
2022/01/14 02:29:29;;;;;;;9.82;4.70;;;;;;;-4.55;69.56;95858.97;4980819;28;20221;-78
2022/01/14 02:31:55;;;;;;;10.55;4.78;;;;;;;-4.53;69.82;95867.53;4993580;28;20233;-75
2022/01/14 02:34:23;;;;;;;11.55;5.03;;;;;;;-4.59;70.16;95863.03;4987863;28;20210;-74
2022/01/14 02:36:52;;;;;;;9.77;4.68;;;;;;;-4.58;70.19;95864.66;4986365;28;20205;-73
2022/01/14 02:39:20;;;;;;;10.68;3.67;;;;;;;-4.65;70.34;95869.94;4980395;28;20240;-74
2022/01/14 02:41:50;;;;;;;12.02;4.18;;;;;;;-4.71;70.79;95860.19;4981872;28;20225;-74
2022/01/14 02:44:24;;;;;;;9.75;4.82;;;;;;;-4.69;71.22;95867.91;4987542;28;20210;-76
2022/01/14 02:46:55;;;;;;;11.32;5.45;;;;;;;-4.74;71.87;95857.13;4987309;28;20681;-74
2022/01/14 02:49:23;;;;;;;13.13;5.07;;;;;;;-4.78;71.30;95853.25;4981894;28;20324;-74
2022/01/14 02:51:52;;;;;;;6.22;3.85;;;;;;;-4.81;71.43;95853.69;4980077;28;20206;-74
2022/01/14 02:54:22;;;;;;;9.07;4.40;;;;;;;-4.81;71.40;95859.78;4985613;28;20198;-74
2022/01/14 02:56:52;;;;;;;5.38;3.60;;;;;;;-4.74;71.21;95857.13;4986946;28;20198;-75
2022/01/14 02:59:20;;;;;;;10.35;5.50;;;;;;;-4.76;70.89;95845.94;4984358;28;20847;-73
2022/01/14 03:01:48;;;;;;;11.73;5.60;;;;;;;-4.72;70.73;95841.88;4980141;28;20202;-74
2022/01/14 03:04:18;;;;;;;7.70;3.97;;;;;;;-4.52;69.76;95844.53;4992932;28;20209;-75
2022/01/14 03:06:45;;;;;;;6.53;4.15;;;;;;;-4.59;69.69;95841.06;4979591;28;20226;-75
2022/01/14 03:09:14;;;;;;;10.93;5.20;;;;;;;-4.42;68.66;95829.06;4981563;28;20632;-74
2022/01/14 03:11:44;;;;;;;10.27;4.63;;;;;;;-4.42;68.83;95831.72;4987022;28;20572;-74
2022/01/14 03:14:13;;;;;;;17.48;6.55;;;;;;;-4.45;69.13;95817.06;4986407;28;20229;-75
2022/01/14 03:16:42;;;;;;;11.10;4.20;;;;;;;-4.39;68.44;95810.97;4980266;28;20204;-75
2022/01/14 03:19:16;;;;;;;11.68;4.40;;;;;;;-4.45;69.14;95817.06;4980374;28;20279;-75
2022/01/14 03:21:43;;;;;;;17.58;7.50;;;;;;;-4.47;69.22;95813.81;4980772;28;20230;-74
2022/01/14 03:24:20;;;;;;;14.30;4.93;;;;;;;-4.42;68.89;95806.09;4993151;28;20201;-75
2022/01/14 03:26:49;;;;;;;9.20;4.43;;;;;;;-4.40;68.43;95790.84;4992933;28;20194;-75
2022/01/14 03:29:17;;;;;;;10.32;5.30;;;;;;;-4.37;68.35;95795.69;4989935;28;20256;-74
2022/01/14 03:31:45;;;;;;;15.70;6.55;;;;;;;-4.35;68.39;95782.28;4982463;28;20687;-75
2022/01/14 03:34:12;;;;;;;13.18;5.78;;;;;;;-4.34;68.09;95791.81;4979278;28;20512;-74
2022/01/14 03:36:39;;;;;;;9.43;4.18;;;;;;;-4.28;67.42;95779.63;4992088;28;20209;-75
2022/01/14 03:39:06;;;;;;;12.07;5.18;;;;;;;-4.06;66.50;95791.56;4976656;28;20253;-75
2022/01/14 03:41:35;;;;;;;12.05;5.38;;;;;;;-4.08;66.18;95775.09;4982799;28;20209;-74
2022/01/14 03:44:02;;;;;;;9.50;5.07;;;;;;;-4.13;67.00;95783.66;4976159;28;20216;-74
2022/01/14 03:46:28;;;;;;;12.13;5.20;;;;;;;-4.03;66.10;95775.28;4983153;28;20209;-75
2022/01/14 03:48:55;;;;;;;14.18;4.78;;;;;;;-4.07;66.12;95766.13;4979461;28;20607;-75
2022/01/14 03:51:24;;;;;;;4.88;3.10;;;;;;;-3.84;64.79;95771.78;4981700;28;20201;-75
2022/01/14 03:53:51;;;;;;;5.63;2.70;;;;;;;-3.98;65.47;95764.91;4985918;28;20214;-74
2022/01/14 03:56:18;;;;;;;6.13;3.17;;;;;;;-4.01;65.33;95767.94;4984145;28;20276;-74
2022/01/14 03:58:46;;;;;;;9.35;4.28;;;;;;;-3.91;65.11;95770.97;4992368;28;20630;-73
2022/01/14 04:01:14;;;;;;;7.38;3.92;;;;;;;-4.03;64.66;95759.41;4991363;28;20205;-73
2022/01/14 04:03:42;;;;;;;13.10;5.90;;;;;;;-4.03;66.04;95777.94;4979404;28;20202;-74
2022/01/14 04:06:10;;;;;;;8.50;4.07;;;;;;;-4.03;65.59;95783.22;4990906;28;20221;-74
2022/01/14 04:08:38;;;;;;;6.40;2.05;;;;;;;-4.11;66.07;95786.09;4980154;28;20264;-73
2022/01/14 04:11:05;;;;;;;14.43;5.53;;;;;;;-4.15;66.03;95774.31;4978998;28;20205;-73
2022/01/14 04:13:42;;;;;;;9.23;4.93;;;;;;;-4.22;66.96;95779.59;4983885;28;20214;-74
2022/01/14 04:16:11;;;;;;;10.25;5.05;;;;;;;-4.16;66.40;95765.56;4985007;28;20316;-74
2022/01/14 04:18:38;;;;;;;12.15;5.50;;;;;;;-4.16;65.80;95751.50;4982533;28;20206;-74
2022/01/14 04:21:05;;;;;;;9.50;4.75;;;;;;;-4.19;66.62;95751.94;4982724;28;20311;-74
2022/01/14 04:23:32;;;;;;;8.98;4.18;;;;;;;-4.17;66.09;95747.25;4988786;28;20197;-74
2022/01/14 04:25:59;;;;;;;7.22;3.47;;;;;;;-4.22;66.49;95745.22;4991026;28;20197;-74
2022/01/14 04:28:30;;;;;;;8.48;4.50;;;;;;;-4.22;66.55;95752.34;4991540;28;20202;-74
2022/01/14 04:30:58;;;;;;;9.32;4.80;;;;;;;-4.24;66.80;95749.09;4989400;28;20305;-75
2022/01/14 04:33:29;;;;;;;6.25;3.65;;;;;;;-4.22;66.99;95752.34;4988054;28;20208;-74
2022/01/14 04:35:58;;;;;;;6.55;3.25;;;;;;;-4.32;66.87;95750.94;4988187;28;20189;-74
2022/01/14 04:38:26;;;;;;;8.40;4.25;;;;;;;-4.14;66.39;95754.78;4989096;28;20228;-74
2022/01/14 04:40:55;;;;;;;8.02;4.22;;;;;;;-4.09;66.87;95760.22;4987352;28;20252;-74
2022/01/14 04:43:34;;;;;;;12.40;5.13;;;;;;;-4.11;66.52;95754.34;4988253;28;20293;-74
2022/01/14 04:46:46;;;;;;;13.07;5.10;;;;;;;-4.12;67.03;95755.38;4982860;28;20229;-75
2022/01/14 04:49:02;;;;;;;12.20;5.38;;;;;;;-4.12;67.15;95755.38;4978047;28;20763;-74
2022/01/14 04:51:29;;;;;;;14.30;5.85;;;;;;;-4.15;66.99;95753.13;4991258;28;20275;-75
2022/01/14 04:53:56;;;;;;;16.20;7.00;;;;;;;-4.01;66.65;95739.66;4978562;28;20202;-74
2022/01/14 04:56:23;;;;;;;7.65;4.30;;;;;;;-4.03;66.72;95751.47;4991573;28;20210;-73
2022/01/14 04:58:49;;;;;;;11.43;6.03;;;;;;;-4.01;66.56;95754.72;4978453;28;20190;-74
2022/01/14 05:01:16;;;;;;;8.52;4.13;;;;;;;-4.03;67.07;95746.19;4978369;28;20206;-74
2022/01/14 05:03:43;;;;;;;7.32;4.15;;;;;;;-4.04;67.14;95744.56;4991326;28;20208;-76
2022/01/14 05:06:11;;;;;;;8.85;3.92;;;;;;;-4.10;67.55;95740.13;4978067;28;20716;-75
2022/01/14 05:08:39;;;;;;;12.60;4.35;;;;;;;-4.09;67.47;95731.13;4971748;28;20221;-75
2022/01/14 05:11:22;;;;;;;12.65;5.53;;;;;;;-4.13;67.64;95735.22;4984960;28;20220;-75
2022/01/14 05:13:49;;;;;;;5.22;2.55;;;;;;;-4.17;67.90;95728.72;4982002;28;20727;-75
2022/01/14 05:16:15;;;;;;;9.07;4.20;;;;;;;-4.12;67.71;95719.16;4978327;28;20201;-75
2022/01/14 05:18:42;;;;;;;7.22;4.07;;;;;;;-4.15;68.21;95731.97;4981160;28;20673;-75
2022/01/14 05:21:13;;;;;;;12.52;5.28;;;;;;;-4.25;68.47;95737.72;4985298;28;20242;-75
2022/01/14 05:23:41;;;;;;;4.20;2.97;;;;;;;-4.35;68.98;95738.13;4983014;28;20200;-76
2022/01/14 05:26:08;;;;;;;13.45;5.38;;;;;;;-4.21;68.94;95740.72;4977842;28;20213;-72
2022/01/14 05:28:35;;;;;;;12.82;5.90;;;;;;;-4.32;69.15;95732.44;4979867;28;20648;-75
2022/01/14 05:31:02;;;;;;;8.60;4.22;;;;;;;-4.26;69.12;95745.84;4984834;28;20728;-75
2022/01/14 05:33:29;;;;;;;8.90;3.35;;;;;;;-4.25;69.25;95731.63;4982993;28;20206;-74
2022/01/14 05:35:56;;;;;;;12.55;5.25;;;;;;;-4.27;69.70;95736.28;4995961;28;20206;-74
2022/01/14 05:38:24;;;;;;;8.75;4.47;;;;;;;-4.34;69.40;95739.75;4991625;28;20204;-74
2022/01/14 05:40:50;;;;;;;20.23;9.25;;;;;;;-4.36;69.12;95736.50;4991101;28;20225;-74
2022/01/14 05:43:18;;;;;;;16.00;6.38;;;;;;;-4.43;69.77;95730.44;4991185;28;20229;-76
2022/01/14 05:45:44;;;;;;;14.35;6.70;;;;;;;-4.45;70.07;95737.75;4978150;28;20206;-74
2022/01/14 05:48:11;;;;;;;20.10;7.57;;;;;;;-4.59;70.04;95736.16;4978730;28;20210;-74
2022/01/14 05:50:40;;;;;;;18.02;7.32;;;;;;;-4.67;70.37;95739.03;4984631;28;20234;-76
2022/01/14 05:53:07;;;;;;;18.85;7.30;;;;;;;-4.71;70.57;95716.66;4986346;28;20597;-74
2022/01/14 05:55:38;;;;;;;13.38;7.10;;;;;;;-4.63;70.56;95719.06;4981554;28;20206;-75
2022/01/14 05:58:04;;;;;;;18.90;8.15;;;;;;;-4.62;71.28;95725.16;4993942;28;20584;-74
2022/01/14 06:00:31;;;;;;;12.57;5.65;;;;;;;-4.39;70.86;95715.78;4994530;28;20229;-75
2022/01/14 06:02:58;;;;;;;15.73;7.20;;;;;;;-4.30;70.50;95709.25;4993508;28;20230;-75
2022/01/14 06:05:25;;;;;;;17.33;5.35;;;;;;;-4.29;70.18;95712.69;4982726;28;20230;-75
2022/01/14 06:07:55;;;;;;;16.63;8.23;;;;;;;-4.33;70.29;95704.34;4980846;28;20297;-74
2022/01/14 06:10:22;;;;;;;12.57;6.93;;;;;;;-4.35;70.33;95711.69;4985282;28;20207;-75
2022/01/14 06:12:51;;;;;;;11.63;6.57;;;;;;;-4.31;70.12;95702.31;4987820;28;20257;-74
2022/01/14 06:15:18;;;;;;;20.10;7.65;;;;;;;-4.23;70.15;95716.31;4983540;28;20276;-74
2022/01/14 06:17:45;;;;;;;11.98;5.38;;;;;;;-4.11;70.07;95718.13;4980335;28;20637;-75
2022/01/14 06:20:13;;;;;;;14.90;6.45;;;;;;;-4.11;69.69;95722.63;4983961;28;20663;-74
2022/01/14 06:22:40;;;;;;;15.32;6.50;;;;;;;-4.06;69.58;95714.84;4973768;28;20333;-73
2022/01/14 06:25:08;;;;;;;11.27;4.97;;;;;;;-4.06;69.40;95699.78;4974579;28;20289;-73
2022/01/14 06:27:35;;;;;;;21.00;9.23;;;;;;;-3.95;69.91;95706.25;4987560;28;20209;-76
2022/01/14 06:30:05;;;;;;;11.43;5.65;;;;;;;-3.94;69.63;95707.88;4984159;28;20727;-74
2022/01/14 06:32:32;;;;;;;20.98;8.88;;;;;;;-3.81;70.00;95712.28;4980727;28;20660;-74
2022/01/14 06:34:59;;;;;;;14.13;8.50;;;;;;;-3.71;70.01;95702.88;4983338;28;20198;-74
2022/01/14 06:37:26;;;;;;;21.45;10.73;;;;;;;-3.64;70.27;95703.66;4987403;28;20215;-75
2022/01/14 06:39:54;;;;;;;30.50;9.77;;;;;;;-3.46;70.41;95688.88;4984898;28;20221;-74
2022/01/14 06:42:21;;;;;;;13.88;6.72;;;;;;;-3.12;71.72;95679.66;4979819;28;20628;-75
2022/01/14 06:44:48;;;;;;;16.67;6.75;;;;;;;-3.03;71.09;95689.78;4993561;28;20202;-75
2022/01/14 06:47:16;;;;;;;15.15;5.50;;;;;;;-2.78;72.28;95686.28;4980498;28;20478;-75
2022/01/14 06:49:43;;;;;;;10.32;5.30;;;;;;;-2.54;72.73;95686.25;4981959;28;20237;-76
2022/01/14 06:52:10;;;;;;;15.43;7.05;;;;;;;-2.31;73.08;95682.13;4992568;28;20202;-75
2022/01/14 06:54:37;;;;;;;15.73;4.57;;;;;;;-1.97;73.47;95672.75;4981985;28;20207;-75
2022/01/14 06:57:04;;;;;;;12.80;6.65;;;;;;;-1.81;74.01;95669.50;4986848;28;20199;-75
2022/01/14 06:59:31;;;;;;;9.32;4.00;;;;;;;-1.78;73.77;95679.66;4985683;28;20198;-75
2022/01/14 07:01:58;;;;;;;14.80;5.90;;;;;;;-1.86;72.97;95659.53;4993601;28;20257;-75
2022/01/14 07:04:27;;;;;;;8.10;5.03;;;;;;;-1.93;72.33;95658.00;4980906;28;20226;-74
2022/01/14 07:06:53;;;;;;;16.08;6.65;;;;;;;-2.00;72.21;95650.13;4986734;28;20223;-75
2022/01/14 07:09:20;;;;;;;15.05;7.65;;;;;;;-1.89;72.61;95659.16;4986561;28;20201;-74
2022/01/14 07:11:53;;;;;;;9.52;4.50;;;;;;;-1.77;73.09;95657.38;4979849;28;20237;-76
2022/01/14 07:14:20;;;;;;;15.90;7.05;;;;;;;-1.71;73.05;95643.19;4992551;28;20185;-75
2022/01/14 07:16:50;;;;;;;11.55;5.60;;;;;;;-1.62;73.28;95643.69;4981111;28;20576;-77
2022/01/14 07:19:20;;;;;;;7.47;4.35;;;;;;;-1.35;74.16;95633.47;4993249;28;20236;-75
2022/01/14 07:21:57;;;;;;;6.35;3.47;;;;;;;-1.33;73.94;95623.41;4992761;28;20233;-76
2022/01/14 07:24:24;;;;;;;9.70;4.28;;;;;;;-1.13;74.31;95642.53;4979720;28;20744;-74
2022/01/14 07:26:51;;;;;;;9.07;5.07;;;;;;;-1.18;73.55;95634.41;4983366;28;20206;-73
2022/01/14 07:29:18;;;;;;;7.78;4.40;;;;;;;-1.02;74.47;95633.75;4986417;28;20222;-74
2022/01/14 07:31:45;;;;;;;12.27;5.03;;;;;;;-0.88;74.59;95637.81;4983247;28;20256;-74
2022/01/14 07:34:12;;;;;;;13.73;3.53;;;;;;;-0.97;73.82;95633.06;4979194;28;20240;-74
2022/01/14 07:36:38;;;;;;;9.40;3.67;;;;;;;-0.85;75.14;95633.88;4982703;28;20202;-75
2022/01/14 07:39:07;;;;;;;6.43;3.88;;;;;;;-0.75;75.05;95629.59;4986086;28;20221;-74
2022/01/14 07:41:33;;;;;;;16.25;5.68;;;;;;;-0.74;74.19;95625.91;4983481;28;20238;-76
2022/01/14 07:44:01;;;;;;;7.10;3.80;;;;;;;-0.65;74.61;95623.69;4987822;28;20656;-75
2022/01/14 07:46:28;;;;;;;9.30;4.60;;;;;;;-0.68;74.27;95621.47;4983707;28;20665;-74
2022/01/14 07:48:55;;;;;;;14.35;6.45;;;;;;;-0.68;74.22;95618.03;4978398;28;20724;-73
2022/01/14 07:51:22;;;;;;;9.00;4.65;;;;;;;-0.43;75.19;95610.59;4982049;28;20222;-75
2022/01/14 07:53:48;;;;;;;13.57;5.60;;;;;;;-0.48;73.98;95607.81;4985992;28;20213;-74
2022/01/14 07:56:17;;;;;;;12.60;5.47;;;;;;;-0.56;74.03;95613.50;4983747;28;20206;-74
2022/01/14 07:58:43;;;;;;;10.20;4.60;;;;;;;-0.28;74.46;95612.75;4980586;28;20190;-75
2022/01/14 08:01:10;;;;;;;10.00;4.55;;;;;;;-0.28;74.75;95610.91;4979676;28;20237;-73
2022/01/14 08:03:37;;;;;;;8.40;3.90;;;;;;;-0.12;74.61;95607.47;4991503;28;20234;-73
2022/01/14 08:06:05;;;;;;;16.25;6.95;;;;;;;-0.16;72.76;95601.03;4992366;28;20230;-74
2022/01/14 08:08:32;;;;;;;18.00;6.53;;;;;;;-0.43;72.65;95583.97;4992266;28;20208;-73
2022/01/14 08:10:59;;;;;;;12.13;5.82;;;;;;;-0.27;73.61;95593.09;4991898;28;20235;-75
2022/01/14 08:13:27;;;;;;;12.25;6.75;;;;;;;-0.25;73.99;95573.16;4985356;28;20225;-72
2022/01/14 08:15:55;;;;;;;7.55;3.35;;;;;;;0.02;73.99;95584.03;4984995;28;20202;-74
2022/01/14 08:18:22;;;;;;;7.57;4.40;;;;;;;0.20;74.46;95583.06;4991767;28;20309;-74
2022/01/14 08:20:49;;;;;;;4.80;2.63;;;;;;;0.33;73.88;95588.09;4991796;28;20287;-73
2022/01/14 08:23:16;;;;;;;9.77;3.63;;;;;;;0.21;73.51;95587.34;4987381;28;20212;-74
2022/01/14 08:25:43;;;;;;;7.28;4.47;;;;;;;0.37;73.64;95583.91;4991565;28;20668;-73
2022/01/14 08:28:09;;;;;;;12.73;3.33;;;;;;;0.57;73.94;95568.25;4984534;28;20222;-74
2022/01/14 08:30:38;;;;;;;5.78;3.03;;;;;;;0.76;73.69;95571.47;4985309;28;20625;-76
2022/01/14 08:33:05;;;;;;;7.00;3.97;;;;;;;0.92;73.20;95575.19;4980417;28;20205;-74
2022/01/14 08:35:32;;;;;;;7.65;3.70;;;;;;;1.09;72.96;95572.53;4978594;28;20217;-74
2022/01/14 08:37:59;;;;;;;6.35;3.20;;;;;;;1.25;72.81;95558.31;4983678;28;20202;-75
2022/01/14 08:40:26;;;;;;;6.85;3.60;;;;;;;1.22;73.33;95550.84;4984825;28;20237;-74
2022/01/14 08:42:54;;;;;;;7.13;3.60;;;;;;;1.45;72.47;95539.13;4980946;28;20911;-73
2022/01/14 08:45:22;;;;;;;4.15;3.03;;;;;;;1.62;71.72;95543.34;4990867;28;20297;-73
2022/01/14 08:47:52;;;;;;;7.25;3.38;;;;;;;1.61;71.47;95546.25;4991418;28;20201;-76
2022/01/14 08:50:20;;;;;;;5.65;2.72;;;;;;;1.61;72.23;95546.25;4977985;28;20271;-73
2022/01/14 08:52:47;;;;;;;4.95;2.28;;;;;;;1.66;71.75;95551.66;4981269;28;20417;-74
2022/01/14 08:55:15;;;;;;;7.82;2.95;;;;;;;1.88;71.05;95541.78;4985033;28;20210;-73
2022/01/14 08:57:42;;;;;;;4.47;2.80;;;;;;;1.52;71.70;95550.41;4981651;28;20209;-74
2022/01/14 09:00:10;;;;;;;8.77;2.88;;;;;;;1.34;72.34;95539.00;4978676;28;20206;-74
2022/01/14 09:02:53;;;;;;;4.70;2.85;;;;;;;1.49;72.34;95524.22;4980293;28;20261;-73
2022/01/14 09:05:22;;;;;;;7.72;2.90;;;;;;;1.48;72.36;95530.63;4978577;28;20307;-75
2022/01/14 09:07:50;;;;;;;7.25;2.78;;;;;;;1.28;72.89;95531.97;4978081;28;20684;-74
2022/01/14 09:10:18;;;;;;;7.10;2.13;;;;;;;1.69;72.44;95530.59;4983977;28;20273;-74
2022/01/14 09:12:45;;;;;;;5.90;4.10;;;;;;;1.55;71.92;95520.53;4984956;28;20213;-75
2022/01/14 09:15:13;;;;;;;7.25;3.88;;;;;;;1.72;71.19;95526.63;4979499;28;20202;-78
2022/01/14 09:17:40;;;;;;;4.45;2.60;;;;;;;1.78;70.98;95533.63;4977910;28;20226;-74
2022/01/14 09:20:09;;;;;;;4.57;2.65;;;;;;;1.77;71.72;95518.69;4991299;28;20551;-74
2022/01/14 09:22:37;;;;;;;6.82;4.03;;;;;;;1.68;71.13;95517.50;4977738;28;20609;-74
2022/01/14 09:25:06;;;;;;;6.60;3.88;;;;;;;1.60;71.27;95520.63;4991039;28;20205;-73
2022/01/14 09:27:33;;;;;;;8.65;2.97;;;;;;;1.62;71.76;95502.47;4977166;28;20226;-74
2022/01/14 09:30:02;;;;;;;5.63;3.10;;;;;;;1.73;71.05;95501.53;4985305;28;20244;-76
2022/01/14 09:32:30;;;;;;;5.65;3.05;;;;;;;1.58;71.39;95493.34;4981991;28;20232;-74
2022/01/14 09:34:57;;;;;;;6.28;2.72;;;;;;;1.64;71.50;95481.69;4984236;28;20198;-73
2022/01/14 09:37:24;;;;;;;5.13;2.20;;;;;;;1.92;71.17;95489.44;4992669;28;20194;-74
2022/01/14 09:39:53;;;;;;;5.97;2.78;;;;;;;1.77;70.80;95474.09;4997204;28;20251;-74
2022/01/14 09:42:20;;;;;;;7.00;3.45;;;;;;;1.60;71.31;95496.59;4994548;28;20233;-74
2022/01/14 09:44:47;;;;;;;15.73;5.65;;;;;;;1.97;70.46;95492.16;4993088;28;20240;-73
2022/01/14 09:47:18;;;;;;;4.53;2.33;;;;;;;1.92;70.91;95489.44;4994411;28;20201;-73
2022/01/14 09:49:45;;;;;;;5.68;3.20;;;;;;;1.86;70.59;95479.78;4990578;28;20321;-73
2022/01/14 09:52:12;;;;;;;4.50;2.70;;;;;;;2.02;70.94;95478.88;4981638;28;20197;-74
2022/01/14 09:54:39;;;;;;;4.32;2.05;;;;;;;2.00;70.29;95467.63;4982214;28;20211;-72
2022/01/14 09:57:08;;;;;;;4.28;2.80;;;;;;;1.84;71.22;95471.19;4987782;28;20213;-74
2022/01/14 09:59:35;;;;;;;11.35;3.08;;;;;;;2.00;71.87;95469.50;4987208;28;20205;-74
2022/01/14 10:02:03;;;;;;;4.97;2.55;;;;;;;1.86;71.58;95474.44;4993998;28;20242;-73
2022/01/14 10:04:31;;;;;;;8.43;4.32;;;;;;;1.79;72.02;95441.75;4981339;28;20226;-73
2022/01/14 10:06:59;;;;;;;3.88;2.25;;;;;;;1.91;71.96;95434.41;4981239;28;20366;-75
2022/01/14 10:09:35;;;;;;;4.32;2.58;;;;;;;1.88;72.19;95429.59;4994051;28;20233;-73
2022/01/14 10:12:10;;;;;;;6.60;3.53;;;;;;;1.82;72.39;95437.78;4982788;28;20205;-73
2022/01/14 10:14:41;;;;;;;3.10;2.22;;;;;;;1.58;73.37;95439.94;4978480;28;20221;-76
2022/01/14 10:17:12;;;;;;;3.22;2.08;;;;;;;1.76;72.39;95437.75;4984322;28;20234;-72
2022/01/14 10:19:42;;;;;;;5.03;2.75;;;;;;;1.92;72.06;95428.00;4993995;28;20233;-72
2022/01/14 10:22:20;;;;;;;5.15;2.30;;;;;;;2.11;72.35;95412.41;4993452;28;20312;-72
2022/01/14 10:24:58;;;;;;;5.10;2.55;;;;;;;2.20;71.32;95404.72;4994240;28;20201;-73
2022/01/14 10:27:33;;;;;;;5.28;2.85;;;;;;;2.63;70.16;95399.13;4993454;28;20236;-74
2022/01/14 10:30:12;;;;;;;4.20;2.40;;;;;;;2.62;69.44;95392.16;4993320;28;20552;-80
2022/01/14 10:32:39;;;;;;;11.30;3.20;;;;;;;2.50;70.42;95395.03;4993420;28;20260;-74
2022/01/14 10:35:07;;;;;;;6.93;3.15;;;;;;;2.61;70.24;95390.56;4988031;28;20226;-72
2022/01/14 10:37:35;;;;;;;4.80;2.42;;;;;;;2.68;69.74;95385.78;4991891;28;20213;-72
2022/01/14 10:40:04;;;;;;;6.50;2.97;;;;;;;2.57;69.21;95368.09;4987706;28;20289;-72
2022/01/14 10:42:33;;;;;;;5.88;3.35;;;;;;;2.06;70.59;95394.44;4990727;28;20225;-72
2022/01/14 10:45:22;;;;;;;5.75;2.58;;;;;;;2.28;70.99;95383.69;4994052;28;20296;-72
2022/01/14 10:47:55;;;;;;;5.68;2.58;;;;;;;2.41;69.62;95369.06;4986137;28;20197;-74
2022/01/14 10:50:35;;;;;;;5.47;2.88;;;;;;;2.60;69.05;95382.81;4986390;28;20257;-72
2022/01/14 10:53:07;;;;;;;4.85;2.75;;;;;;;2.65;69.30;95374.81;4983557;28;20209;-73
2022/01/14 10:55:36;;;;;;;4.78;2.25;;;;;;;2.69;69.22;95355.31;4979617;28;20569;-72
2022/01/14 10:58:05;;;;;;;4.80;2.70;;;;;;;2.97;68.56;95346.06;4993213;28;20213;-72
2022/01/14 11:00:42;;;;;;;6.30;3.38;;;;;;;2.98;68.00;95342.34;4980827;28;20604;-73
2022/01/14 11:03:09;;;;;;;4.30;2.17;;;;;;;2.89;68.08;95337.72;4980148;28;20240;-72
2022/01/14 11:05:36;;;;;;;7.45;3.45;;;;;;;2.82;67.93;95328.09;4983826;28;20213;-72
2022/01/14 11:08:04;;;;;;;6.55;3.17;;;;;;;3.08;67.94;95333.53;4986589;28;20240;-74
2022/01/14 11:10:33;;;;;;;6.75;3.83;;;;;;;2.93;68.21;95326.25;4982176;28;20209;-74
2022/01/14 11:13:02;;;;;;;6.30;2.55;;;;;;;3.15;67.63;95337.56;4979815;28;20629;-73
2022/01/14 11:15:31;;;;;;;6.60;2.40;;;;;;;3.46;67.13;95322.38;4982644;28;20221;-73
2022/01/14 11:18:02;;;;;;;5.13;2.65;;;;;;;3.54;67.05;95305.78;4989555;28;20213;-73
2022/01/14 11:20:33;;;;;;;4.90;2.35;;;;;;;3.73;66.54;95305.25;4992722;28;20228;-72
2022/01/14 11:23:15;;;;;;;6.53;3.72;;;;;;;3.63;66.45;95298.00;4992603;28;20237;-74
2022/01/14 11:25:50;;;;;;;4.32;2.38;;;;;;;3.75;66.32;95284.34;4979970;28;20817;-74
2022/01/14 11:28:21;;;;;;;5.47;2.80;;;;;;;3.83;65.91;95283.81;4984415;28;20562;-73
2022/01/14 11:30:48;;;;;;;6.57;3.40;;;;;;;3.56;66.49;95279.53;4986041;28;20210;-73
2022/01/14 11:33:19;;;;;;;8.02;3.97;;;;;;;3.73;65.15;95273.09;4982330;28;20210;-74
2022/01/14 11:35:58;;;;;;;3.38;2.33;;;;;;;3.61;65.93;95253.81;4979528;28;20197;-73
2022/01/14 11:38:41;;;;;;;6.70;2.55;;;;;;;3.62;65.53;95258.09;4981245;28;20213;-73
2022/01/14 11:41:12;;;;;;;4.90;2.70;;;;;;;3.56;65.62;95242.03;4980191;28;20205;-73
2022/01/14 11:43:45;;;;;;;9.55;2.60;;;;;;;3.64;65.34;95258.63;4991449;28;20233;-73
2022/01/14 11:46:14;;;;;;;2.97;1.88;;;;;;;3.82;65.36;95245.50;4982084;28;20242;-72
2022/01/14 11:48:47;;;;;;;6.30;2.83;;;;;;;4.03;64.97;95248.16;4978952;28;20314;-74